Time;durP1;ratioP1;P1;durP2;ratioP2;P2;SDS_P1;SDS_P2;PMS_P1;PMS_P2;Temp;Humidity;BMP_temperature;BMP_pressure;BME280_temperature;BME280_humidity;BME280_pressure;Samples;Min_cycle;Max_cycle;Signal;HPM_P1;HPM_P2
2022/07/30 00:02:15;;;;;;;6.17;3.00;;;;;;;;;;4972775;28;20434;-82
2022/07/30 00:04:41;;;;;;;2.70;2.60;;;;;;;;;;4973733;28;20441;-83
2022/07/30 00:07:07;;;;;;;3.50;3.20;;;;;;;;;;4973378;28;20442;-83
2022/07/30 00:09:33;;;;;;;2.53;2.07;;;;;;;;;;4974003;28;20433;-84
2022/07/30 00:11:59;;;;;;;1.90;1.90;;;;;;;;;;4976180;28;20437;-83
2022/07/30 00:14:25;;;;;;;2.43;1.90;;;;;;;;;;4977630;28;21028;-83
2022/07/30 00:16:51;;;;;;;4.33;2.47;;;;;;;;;;4977671;28;20848;-82
2022/07/30 00:19:17;;;;;;;2.10;1.90;;;;;;;;;;4976310;28;20895;-83
2022/07/30 00:21:45;;;;;;;1.43;1.43;;;;;;;;;;4977540;28;20477;-82
2022/07/30 00:24:11;;;;;;;3.70;1.90;;;;;;;;;;4977337;28;20512;-83
2022/07/30 00:26:37;;;;;;;1.60;1.57;;;;;;;;;;4977810;28;20441;-83
2022/07/30 00:29:03;;;;;;;6.60;1.83;;;;;;;;;;4976829;28;20949;-82
2022/07/30 00:31:29;;;;;;;2.13;2.03;;;;;;;;;;4977448;28;20954;-83
2022/07/30 00:33:55;;;;;;;3.90;1.73;;;;;;;;;;4977164;28;20434;-81
2022/07/30 00:36:22;;;;;;;1.83;1.80;;;;;;;;;;4977193;28;20441;-82
2022/07/30 00:38:48;;;;;;;1.63;1.63;;;;;;;;;;4977084;28;20480;-82
2022/07/30 00:41:14;;;;;;;1.87;1.77;;;;;;;;;;4977171;28;20476;-82
2022/07/30 00:43:40;;;;;;;1.93;1.83;;;;;;;;;;4976298;28;20494;-83
2022/07/30 00:46:06;;;;;;;2.97;2.40;;;;;;;;;;4977263;28;20438;-84
2022/07/30 00:48:32;;;;;;;3.03;1.80;;;;;;;;;;4977312;28;20796;-80
2022/07/30 00:50:58;;;;;;;1.93;1.83;;;;;;;;;;4976896;28;20186;-83
2022/07/30 00:53:24;;;;;;;5.40;1.83;;;;;;;;;;4976473;28;20858;-83
2022/07/30 00:55:50;;;;;;;3.47;1.67;;;;;;;;;;4976268;28;20481;-83
2022/07/30 00:58:16;;;;;;;1.37;1.37;;;;;;;;;;4976197;28;20503;-83
2022/07/30 01:00:42;;;;;;;4.33;1.50;;;;;;;;;;4977038;28;20449;-83
2022/07/30 01:03:08;;;;;;;8.37;2.00;;;;;;;;;;4975103;28;20500;-83
2022/07/30 01:05:34;;;;;;;4.80;1.90;;;;;;;;;;4976924;28;20452;-83
2022/07/30 01:08:00;;;;;;;2.23;2.13;;;;;;;;;;4976547;28;20234;-83
2022/07/30 01:10:26;;;;;;;2.10;2.00;;;;;;;;;;4976486;28;20446;-84
2022/07/30 01:12:53;;;;;;;2.50;2.03;;;;;;;;;;4975992;28;20428;-83
2022/07/30 01:15:19;;;;;;;1.67;1.57;;;;;;;;;;4976566;28;20529;-82
2022/07/30 01:17:47;;;;;;;21.87;4.40;;;;;;;;;;4991574;28;20472;-80
2022/07/30 01:20:25;;;;;;;2.27;2.17;;;;;;;;;;4976499;28;20440;-83
2022/07/30 01:22:57;;;;;;;7.03;2.07;;;;;;;;;;4975169;28;20468;-82
2022/07/30 01:25:28;;;;;;;2.33;1.80;;;;;;;;;;4976263;28;20513;-83
2022/07/30 01:28:13;;;;;;;6.03;1.83;;;;;;;;;;4976311;28;20458;-83
2022/07/30 01:30:41;;;;;;;5.93;2.50;;;;;;;;;;4974737;28;20838;-83
2022/07/30 01:33:10;;;;;;;3.33;1.60;;;;;;;;;;4976115;28;20469;-81
2022/07/30 01:35:37;;;;;;;3.23;1.43;;;;;;;;;;4976007;28;20495;-83
2022/07/30 01:38:04;;;;;;;2.57;1.90;;;;;;;;;;4976043;28;20493;-83
2022/07/30 01:40:31;;;;;;;1.73;1.63;;;;;;;;;;4976142;28;20428;-83
2022/07/30 01:42:58;;;;;;;9.10;1.83;;;;;;;;;;4975862;28;20418;-82
2022/07/30 01:45:24;;;;;;;2.73;2.30;;;;;;;;;;4976150;28;20418;-83
2022/07/30 01:47:55;;;;;;;4.43;1.63;;;;;;;;;;4974923;28;20466;-81
2022/07/30 01:50:21;;;;;;;4.40;1.77;;;;;;;;;;4976145;28;20429;-82
2022/07/30 01:52:49;;;;;;;4.93;1.80;;;;;;;;;;4975494;28;20488;-83
2022/07/30 01:55:17;;;;;;;3.73;2.40;;;;;;;;;;4975580;28;20954;-82
2022/07/30 01:57:46;;;;;;;1.30;1.30;;;;;;;;;;4975830;28;20915;-83
2022/07/30 02:00:13;;;;;;;1.87;1.77;;;;;;;;;;4975613;28;20442;-83
2022/07/30 02:02:40;;;;;;;2.90;2.30;;;;;;;;;;4975413;28;20430;-82
2022/07/30 02:05:06;;;;;;;6.43;2.03;;;;;;;;;;4975687;28;20438;-83
2022/07/30 02:07:41;;;;;;;6.33;1.87;;;;;;;;;;4975774;28;20440;-83
2022/07/30 02:10:15;;;;;;;2.30;2.20;;;;;;;;;;4975611;28;20500;-83
2022/07/30 02:12:44;;;;;;;2.00;1.50;;;;;;;;;;4974635;28;20517;-82
2022/07/30 02:15:17;;;;;;;2.23;2.13;;;;;;;;;;4974410;28;20576;-84
2022/07/30 02:17:46;;;;;;;1.90;1.80;;;;;;;;;;4975851;28;20425;-83
2022/07/30 02:20:13;;;;;;;1.50;1.50;;;;;;;;;;4974175;28;20581;-82
2022/07/30 02:22:39;;;;;;;6.40;1.57;;;;;;;;;;4974920;28;20441;-83
2022/07/30 02:25:07;;;;;;;3.13;1.70;;;;;;;;;;4975543;28;20445;-81
2022/07/30 02:27:34;;;;;;;1.13;1.13;;;;;;;;;;4975168;28;20797;-83
2022/07/30 02:30:01;;;;;;;1.70;1.70;;;;;;;;;;4975309;28;20433;-82
2022/07/30 02:32:29;;;;;;;1.90;1.87;;;;;;;;;;4975237;28;20450;-82
2022/07/30 02:34:56;;;;;;;3.17;1.80;;;;;;;;;;4974935;28;20985;-80
2022/07/30 02:37:23;;;;;;;1.90;1.90;;;;;;;;;;4975028;28;20830;-82
2022/07/30 02:39:51;;;;;;;2.37;2.17;;;;;;;;;;4975442;28;20911;-82
2022/07/30 02:42:18;;;;;;;2.73;1.50;;;;;;;;;;4974469;28;20442;-82
2022/07/30 02:44:45;;;;;;;1.53;1.53;;;;;;;;;;4975074;28;20449;-82
2022/07/30 02:47:12;;;;;;;1.40;1.40;;;;;;;;;;4975056;28;20434;-78
2022/07/30 02:49:39;;;;;;;5.83;1.70;;;;;;;;;;4974630;28;20513;-81
2022/07/30 02:52:12;;;;;;;5.37;1.43;;;;;;;;;;4974429;28;20914;-81
2022/07/30 02:54:39;;;;;;;1.93;1.70;;;;;;;;;;4974302;28;20481;-82
2022/07/30 02:57:05;;;;;;;1.47;1.47;;;;;;;;;;4989341;28;21119;-83
2022/07/30 02:59:33;;;;;;;2.10;2.10;;;;;;;;;;4974565;28;20505;-82
2022/07/30 03:02:00;;;;;;;2.30;2.10;;;;;;;;;;4974234;28;20442;-83
2022/07/30 03:04:27;;;;;;;5.37;2.10;;;;;;;;;;4971720;28;20461;-83
2022/07/30 03:06:54;;;;;;;3.73;1.60;;;;;;;;;;4974146;28;20450;-80
2022/07/30 03:09:20;;;;;;;1.80;1.70;;;;;;;;;;4974238;28;20434;-80
2022/07/30 03:11:48;;;;;;;3.07;2.20;;;;;;;;;;4973355;28;20493;-78
2022/07/30 03:14:14;;;;;;;1.80;1.70;;;;;;;;;;4973009;28;20502;-81
2022/07/30 03:16:43;;;;;;;3.20;1.90;;;;;;;;;;4973747;28;20473;-81
2022/07/30 03:19:09;;;;;;;2.33;1.73;;;;;;;;;;4974257;28;20422;-83
2022/07/30 03:21:36;;;;;;;1.60;1.60;;;;;;;;;;4973502;28;20438;-83
2022/07/30 03:24:04;;;;;;;1.60;1.60;;;;;;;;;;4973752;28;20418;-82
2022/07/30 03:26:30;;;;;;;2.60;1.53;;;;;;;;;;4973435;28;20795;-82
2022/07/30 03:28:56;;;;;;;1.70;1.60;;;;;;;;;;4973970;28;20410;-82
2022/07/30 03:31:22;;;;;;;4.10;1.67;;;;;;;;;;4973613;28;20438;-83
2022/07/30 03:33:49;;;;;;;1.60;1.50;;;;;;;;;;4973651;28;20422;-82
2022/07/30 03:36:16;;;;;;;2.00;1.57;;;;;;;;;;4984855;28;20552;-83
2022/07/30 03:38:43;;;;;;;2.70;1.80;;;;;;;;;;4971682;28;20456;-83
2022/07/30 03:41:10;;;;;;;1.47;1.40;;;;;;;;;;4988305;28;20457;-83
2022/07/30 03:43:37;;;;;;;1.90;1.50;;;;;;;;;;4973286;28;20972;-83
2022/07/30 03:46:03;;;;;;;3.07;2.13;;;;;;;;;;4972931;28;20945;-83
2022/07/30 03:48:30;;;;;;;2.10;1.60;;;;;;;;;;4972441;28;20434;-84
2022/07/30 03:50:56;;;;;;;1.63;1.63;;;;;;;;;;4972481;28;20437;-79
2022/07/30 03:53:23;;;;;;;1.53;1.53;;;;;;;;;;4968025;28;20919;-84
2022/07/30 03:55:51;;;;;;;6.23;2.50;;;;;;;;;;4962299;28;20501;-82
2022/07/30 03:58:17;;;;;;;1.70;1.60;;;;;;;;;;4972903;28;20434;-83
2022/07/30 04:00:46;;;;;;;2.20;2.10;;;;;;;;;;4973690;28;20438;-82
2022/07/30 04:03:12;;;;;;;2.10;1.40;;;;;;;;;;4972977;28;20473;-83
2022/07/30 04:05:38;;;;;;;1.80;1.70;;;;;;;;;;4973510;28;20842;-84
2022/07/30 04:08:04;;;;;;;3.50;1.80;;;;;;;;;;4972932;28;20517;-83
2022/07/30 04:10:30;;;;;;;7.87;2.40;;;;;;;;;;4973716;28;20868;-83
2022/07/30 04:12:56;;;;;;;1.57;1.53;;;;;;;;;;4972659;28;20417;-84
2022/07/30 04:15:22;;;;;;;1.53;1.43;;;;;;;;;;4973032;28;20493;-84
2022/07/30 04:17:50;;;;;;;1.50;1.50;;;;;;;;;;4972727;28;20434;-83
2022/07/30 04:20:34;;;;;;;2.07;1.97;;;;;;;;;;4973769;28;20619;-84
2022/07/30 04:23:00;;;;;;;1.67;1.57;;;;;;;;;;4972861;28;20420;-83
2022/07/30 04:25:26;;;;;;;2.20;1.43;;;;;;;;;;4973544;28;20525;-82
2022/07/30 04:27:52;;;;;;;2.50;2.30;;;;;;;;;;4971573;28;20445;-84
2022/07/30 04:30:18;;;;;;;2.10;2.10;;;;;;;;;;4973122;28;20445;-82
2022/07/30 04:32:44;;;;;;;4.73;2.03;;;;;;;;;;4973132;28;20426;-84
2022/07/30 04:35:11;;;;;;;2.50;2.10;;;;;;;;;;4972860;28;20515;-83
2022/07/30 04:37:37;;;;;;;1.70;1.60;;;;;;;;;;4973586;28;20836;-84
2022/07/30 04:40:03;;;;;;;3.23;1.93;;;;;;;;;;4971356;28;20425;-83
2022/07/30 04:42:29;;;;;;;9.80;2.10;;;;;;;;;;4972800;28;20961;-83
2022/07/30 04:44:56;;;;;;;2.33;2.23;;;;;;;;;;4972929;28;20465;-80
2022/07/30 04:47:23;;;;;;;1.80;1.80;;;;;;;;;;4973263;28;20429;-83
2022/07/30 04:49:50;;;;;;;1.97;1.90;;;;;;;;;;4972519;28;20418;-83
2022/07/30 04:52:17;;;;;;;1.73;1.70;;;;;;;;;;4968916;28;20442;-78
2022/07/30 04:54:46;;;;;;;3.27;1.90;;;;;;;;;;4972857;28;20516;-83
2022/07/30 04:57:13;;;;;;;4.70;2.17;;;;;;;;;;4973830;28;20418;-83
2022/07/30 04:59:39;;;;;;;1.63;1.63;;;;;;;;;;4976785;28;20534;-79
2022/07/30 05:02:06;;;;;;;11.57;2.20;;;;;;;;;;4975347;28;20426;-84
2022/07/30 05:04:33;;;;;;;7.30;2.20;;;;;;;;;;4975693;28;20774;-85
2022/07/30 05:07:00;;;;;;;2.57;2.47;;;;;;;;;;4976052;28;20422;-83
2022/07/30 05:09:26;;;;;;;2.60;2.20;;;;;;;;;;4977035;28;20449;-81
2022/07/30 05:11:54;;;;;;;2.13;2.00;;;;;;;;;;4975343;28;20484;-82
2022/07/30 05:14:21;;;;;;;4.13;1.90;;;;;;;;;;4976615;28;20547;-80
2022/07/30 05:16:47;;;;;;;1.60;1.60;;;;;;;;;;4976305;28;20794;-83
2022/07/30 05:19:12;;;;;;;8.17;2.17;;;;;;;;;;4976693;28;20417;-79
2022/07/30 05:21:39;;;;;;;2.13;2.10;;;;;;;;;;4976164;28;20850;-80
2022/07/30 05:24:05;;;;;;;2.00;2.00;;;;;;;;;;4975159;28;20426;-75
2022/07/30 05:26:31;;;;;;;1.97;1.87;;;;;;;;;;4976058;28;20432;-79
2022/07/30 05:28:57;;;;;;;2.43;2.27;;;;;;;;;;4976125;28;20505;-75
2022/07/30 05:31:23;;;;;;;2.00;1.90;;;;;;;;;;4976356;28;20434;-82
2022/07/30 05:33:49;;;;;;;5.60;2.10;;;;;;;;;;4974977;28;20425;-83
2022/07/30 05:36:15;;;;;;;3.40;2.47;;;;;;;;;;4976360;28;20495;-81
2022/07/30 05:38:41;;;;;;;2.00;2.00;;;;;;;;;;4975970;28;20899;-79
2022/07/30 05:41:07;;;;;;;1.87;1.77;;;;;;;;;;4973741;28;20449;-82
2022/07/30 05:43:33;;;;;;;1.70;1.70;;;;;;;;;;4990059;28;20441;-82
2022/07/30 05:45:59;;;;;;;2.80;2.60;;;;;;;;;;4990142;28;20434;-82
2022/07/30 05:48:26;;;;;;;2.27;2.17;;;;;;;;;;4975524;28;20269;-82
2022/07/30 05:50:52;;;;;;;1.83;1.80;;;;;;;;;;4975774;28;20426;-81
2022/07/30 05:53:18;;;;;;;7.53;1.90;;;;;;;;;;4975324;28;20440;-82
2022/07/30 05:55:44;;;;;;;8.53;2.10;;;;;;;;;;4975522;28;20544;-83
2022/07/30 05:58:10;;;;;;;6.03;2.10;;;;;;;;;;4974404;28;20426;-83
2022/07/30 06:00:36;;;;;;;4.30;2.63;;;;;;;;;;4975512;28;20936;-79
2022/07/30 06:03:02;;;;;;;2.53;2.30;;;;;;;;;;4975518;28;20990;-78
2022/07/30 06:05:31;;;;;;;3.50;2.10;;;;;;;;;;4975473;28;20440;-83
2022/07/30 06:07:57;;;;;;;7.80;1.93;;;;;;;;;;4975350;28;20418;-79
2022/07/30 06:10:23;;;;;;;1.87;1.87;;;;;;;;;;4975032;28;20950;-83
2022/07/30 06:12:49;;;;;;;2.60;2.50;;;;;;;;;;4974534;28;20322;-82
2022/07/30 06:15:15;;;;;;;7.93;2.50;;;;;;;;;;4975300;28;21052;-83
2022/07/30 06:17:42;;;;;;;2.40;2.30;;;;;;;;;;4974896;28;20804;-82
2022/07/30 06:20:08;;;;;;;2.67;2.37;;;;;;;;;;4973908;28;20433;-78
2022/07/30 06:22:34;;;;;;;4.57;2.43;;;;;;;;;;4975373;28;20418;-77
2022/07/30 06:25:00;;;;;;;2.13;2.13;;;;;;;;;;4974948;28;20516;-74
2022/07/30 06:27:26;;;;;;;7.00;2.43;;;;;;;;;;4974644;28;20237;-74
2022/07/30 06:29:52;;;;;;;1.90;1.90;;;;;;;;;;4974958;28;20907;-80
2022/07/30 06:32:18;;;;;;;2.87;2.20;;;;;;;;;;4975021;28;20457;-83
2022/07/30 06:34:44;;;;;;;2.27;2.10;;;;;;;;;;4973988;28;20487;-80
2022/07/30 06:37:10;;;;;;;2.70;2.47;;;;;;;;;;4974419;28;20429;-83
2022/07/30 06:39:36;;;;;;;7.00;2.70;;;;;;;;;;4975137;28;20430;-82
2022/07/30 06:42:02;;;;;;;10.10;2.50;;;;;;;;;;4974148;28;20478;-83
2022/07/30 06:44:28;;;;;;;2.40;2.30;;;;;;;;;;4975319;28;20483;-75
2022/07/30 06:46:54;;;;;;;1.80;1.77;;;;;;;;;;4973863;28;20842;-77
2022/07/30 06:49:21;;;;;;;2.60;2.37;;;;;;;;;;4975209;28;20426;-81
2022/07/30 06:51:47;;;;;;;6.60;2.20;;;;;;;;;;4974175;28;20433;-83
2022/07/30 06:54:13;;;;;;;5.80;2.40;;;;;;;;;;4974678;28;20465;-80
2022/07/30 06:56:39;;;;;;;1.80;1.80;;;;;;;;;;4973526;28;20442;-85
2022/07/30 06:59:05;;;;;;;2.20;2.10;;;;;;;;;;4975011;28;20418;-85
2022/07/30 07:01:31;;;;;;;2.10;2.00;;;;;;;;;;4974362;28;20430;-84
2022/07/30 07:03:57;;;;;;;9.63;2.17;;;;;;;;;;4974060;28;20437;-86
2022/07/30 07:06:23;;;;;;;4.83;2.20;;;;;;;;;;4973143;28;20536;-76
2022/07/30 07:08:49;;;;;;;2.17;2.07;;;;;;;;;;4973240;28;21053;-76
2022/07/30 07:11:15;;;;;;;3.10;2.00;;;;;;;;;;4972879;28;20778;-77
2022/07/30 07:13:41;;;;;;;4.10;2.37;;;;;;;;;;4973880;28;20434;-75
2022/07/30 07:16:07;;;;;;;6.33;2.20;;;;;;;;;;4974169;28;20834;-76
2022/07/30 07:18:33;;;;;;;3.60;1.97;;;;;;;;;;4972839;28;20426;-78
2022/07/30 07:20:59;;;;;;;4.37;3.97;;;;;;;;;;4972193;28;20434;-74
2022/07/30 07:23:25;;;;;;;5.33;1.90;;;;;;;;;;4973955;28;20175;-75
2022/07/30 07:25:51;;;;;;;2.00;2.00;;;;;;;;;;4974285;28;20414;-75
2022/07/30 07:28:17;;;;;;;2.53;2.33;;;;;;;;;;4973444;28;20982;-74
2022/07/30 07:30:43;;;;;;;3.20;2.10;;;;;;;;;;4974115;28;20643;-77
2022/07/30 07:33:09;;;;;;;2.00;2.00;;;;;;;;;;4972430;28;20410;-74
2022/07/30 07:35:35;;;;;;;3.70;1.90;;;;;;;;;;4974320;28;20485;-76
2022/07/30 07:38:01;;;;;;;5.57;1.93;;;;;;;;;;4973484;28;20414;-75
2022/07/30 07:40:27;;;;;;;1.57;1.57;;;;;;;;;;4973902;28;20577;-78
2022/07/30 07:42:53;;;;;;;3.27;1.77;;;;;;;;;;4973064;28;20505;-76
2022/07/30 07:45:19;;;;;;;2.73;2.30;;;;;;;;;;4974112;28;20418;-73
2022/07/30 07:47:45;;;;;;;7.50;1.90;;;;;;;;;;4973660;28;20191;-74
2022/07/30 07:50:14;;;;;;;1.70;1.60;;;;;;;;;;4973698;28;20417;-73
2022/07/30 07:52:39;;;;;;;1.60;1.60;;;;;;;;;;4972169;28;20432;-74
2022/07/30 07:55:06;;;;;;;3.03;1.70;;;;;;;;;;4973478;28;20501;-74
2022/07/30 07:57:37;;;;;;;2.30;1.77;;;;;;;;;;4973445;28;20241;-73
2022/07/30 08:00:04;;;;;;;3.60;1.87;;;;;;;;;;4973529;28;20418;-74
2022/07/30 08:02:30;;;;;;;3.60;2.10;;;;;;;;;;4973049;28;20888;-74
2022/07/30 08:04:57;;;;;;;3.20;2.07;;;;;;;;;;4973532;28;20428;-73
2022/07/30 08:07:23;;;;;;;4.63;1.90;;;;;;;;;;4973541;28;20182;-74
2022/07/30 08:09:49;;;;;;;2.03;1.93;;;;;;;;;;4973254;28;20524;-74
2022/07/30 08:12:15;;;;;;;2.03;2.03;;;;;;;;;;4973202;28;20178;-74
2022/07/30 08:14:41;;;;;;;4.30;1.93;;;;;;;;;;4972599;28;20473;-74
2022/07/30 08:17:07;;;;;;;2.67;2.37;;;;;;;;;;4973936;28;20256;-75
2022/07/30 08:19:33;;;;;;;2.60;2.37;;;;;;;;;;4972983;28;20926;-74
2022/07/30 08:21:58;;;;;;;1.87;1.77;;;;;;;;;;4973624;28;20418;-67
2022/07/30 08:24:25;;;;;;;1.77;1.77;;;;;;;;;;4973882;28;20437;-67
2022/07/30 08:26:51;;;;;;;4.73;2.10;;;;;;;;;;4973512;28;20547;-75
2022/07/30 08:29:17;;;;;;;2.77;2.40;;;;;;;;;;4970983;28;20434;-74
2022/07/30 08:31:43;;;;;;;4.50;2.30;;;;;;;;;;4972421;28;20922;-74
2022/07/30 08:34:09;;;;;;;2.30;2.20;;;;;;;;;;4977201;28;20429;-80
2022/07/30 08:36:34;;;;;;;2.47;2.37;;;;;;;;;;4976970;28;20437;-74
2022/07/30 08:39:00;;;;;;;2.50;2.40;;;;;;;;;;4977230;28;20214;-73
2022/07/30 08:41:27;;;;;;;1.97;1.87;;;;;;;;;;4973075;28;20989;-74
2022/07/30 08:43:54;;;;;;;3.30;2.00;;;;;;;;;;4957720;28;20434;-75
2022/07/30 08:46:22;;;;;;;5.40;2.37;;;;;;;;;;4957753;28;20435;-73
2022/07/30 08:48:48;;;;;;;4.33;1.97;;;;;;;;;;4974982;28;20430;-73
2022/07/30 08:51:16;;;;;;;2.40;2.30;;;;;;;;;;4976534;28;20495;-80
2022/07/30 08:53:43;;;;;;;2.43;2.27;;;;;;;;;;4976407;28;20826;-74
2022/07/30 08:56:09;;;;;;;2.50;2.13;;;;;;;;;;4976212;28;20989;-73
2022/07/30 08:58:35;;;;;;;2.27;2.17;;;;;;;;;;4976932;28;20431;-68
2022/07/30 09:01:01;;;;;;;1.60;1.47;;;;;;;;;;4976928;28;20556;-73
2022/07/30 09:03:27;;;;;;;2.90;2.37;;;;;;;;;;4976183;28;20446;-73
2022/07/30 09:05:53;;;;;;;1.57;1.57;;;;;;;;;;4976796;28;20504;-73
2022/07/30 09:08:19;;;;;;;2.83;2.20;;;;;;;;;;4976500;28;20414;-74
2022/07/30 09:10:46;;;;;;;3.13;2.27;;;;;;;;;;4976650;28;20568;-74
2022/07/30 09:13:26;;;;;;;6.30;1.53;;;;;;;;;;4975787;28;20429;-73
2022/07/30 09:15:52;;;;;;;6.03;2.27;;;;;;;;;;4976865;28;20535;-72
2022/07/30 09:18:32;;;;;;;1.87;1.77;;;;;;;;;;4976309;28;20414;-73
2022/07/30 09:20:59;;;;;;;1.30;1.27;;;;;;;;;;4976722;28;20425;-73
2022/07/30 09:23:25;;;;;;;3.13;1.73;;;;;;;;;;4975464;28;20464;-73
2022/07/30 09:25:51;;;;;;;3.10;1.77;;;;;;;;;;4976530;28;20462;-72
2022/07/30 09:28:26;;;;;;;6.00;1.50;;;;;;;;;;4976090;28;20421;-74
2022/07/30 09:30:53;;;;;;;2.83;2.40;;;;;;;;;;4976456;28;20418;-74
2022/07/30 09:33:39;;;;;;;4.50;2.07;;;;;;;;;;4975227;28;20436;-74
2022/07/30 09:36:06;;;;;;;2.30;1.80;;;;;;;;;;4974145;28;20844;-74
2022/07/30 09:38:46;;;;;;;7.00;1.97;;;;;;;;;;4976001;28;20422;-74
2022/07/30 09:41:12;;;;;;;3.23;1.10;;;;;;;;;;4976023;28;20910;-73
2022/07/30 09:43:42;;;;;;;1.50;1.27;;;;;;;;;;4987715;28;20441;-78
2022/07/30 09:46:08;;;;;;;2.93;1.60;;;;;;;;;;4976171;28;20444;-74
2022/07/30 09:48:34;;;;;;;1.40;1.23;;;;;;;;;;4975970;28;20418;-73
2022/07/30 09:51:00;;;;;;;2.20;1.80;;;;;;;;;;4979128;28;20462;-73
2022/07/30 09:53:26;;;;;;;1.53;1.47;;;;;;;;;;4972733;28;20446;-73
2022/07/30 09:55:53;;;;;;;2.00;1.73;;;;;;;;;;4974712;28;20513;-73
2022/07/30 09:58:19;;;;;;;5.83;1.40;;;;;;;;;;4975403;28;20461;-73
2022/07/30 10:00:45;;;;;;;2.40;2.23;;;;;;;;;;4974684;28;20436;-73
2022/07/30 10:03:18;;;;;;;1.70;1.60;;;;;;;;;;4974664;28;20430;-73
2022/07/30 10:05:57;;;;;;;1.50;1.40;;;;;;;;;;4974770;28;20430;-74
2022/07/30 10:08:43;;;;;;;1.80;1.70;;;;;;;;;;4975364;28;20809;-73
2022/07/30 10:11:10;;;;;;;2.10;1.47;;;;;;;;;;4974403;28;20789;-73
2022/07/30 10:13:37;;;;;;;3.67;1.97;;;;;;;;;;4974975;28;20448;-73
2022/07/30 10:16:04;;;;;;;3.43;1.53;;;;;;;;;;4975036;28;20485;-73
2022/07/30 10:18:30;;;;;;;6.13;1.43;;;;;;;;;;4975549;28;20835;-74
2022/07/30 10:20:56;;;;;;;4.73;1.80;;;;;;;;;;4974939;28;20456;-74
2022/07/30 10:23:26;;;;;;;1.70;1.60;;;;;;;;;;4974822;28;20426;-75
2022/07/30 10:25:54;;;;;;;1.47;1.47;;;;;;;;;;4975240;28;20546;-74
2022/07/30 10:28:20;;;;;;;1.97;1.47;;;;;;;;;;4975398;28;21005;-74
2022/07/30 10:30:49;;;;;;;7.60;1.53;;;;;;;;;;4975626;28;20995;-74
2022/07/30 10:33:16;;;;;;;1.93;1.90;;;;;;;;;;4974839;28;20453;-75
2022/07/30 10:35:41;;;;;;;1.20;1.20;;;;;;;;;;4975554;28;20477;-75
2022/07/30 10:38:10;;;;;;;1.33;1.23;;;;;;;;;;4975592;28;20414;-75
2022/07/30 10:40:37;;;;;;;3.23;1.43;;;;;;;;;;4974893;28;20650;-74
2022/07/30 10:43:03;;;;;;;3.03;1.60;;;;;;;;;;4989874;28;20930;-74
2022/07/30 10:45:48;;;;;;;1.87;1.77;;;;;;;;;;4970929;28;20450;-74
2022/07/30 10:48:15;;;;;;;1.60;1.60;;;;;;;;;;4970477;28;20182;-74
2022/07/30 10:50:58;;;;;;;6.83;2.20;;;;;;;;;;4974779;28;20406;-74
2022/07/30 10:53:50;;;;;;;6.23;1.63;;;;;;;;;;4974796;28;20422;-74
2022/07/30 10:56:20;;;;;;;1.63;1.53;;;;;;;;;;4971407;28;20521;-74
2022/07/30 10:59:01;;;;;;;1.57;1.47;;;;;;;;;;4974534;28;20422;-74
2022/07/30 11:01:46;;;;;;;6.77;1.40;;;;;;;;;;4973880;28;20462;-74
2022/07/30 11:04:19;;;;;;;1.77;1.70;;;;;;;;;;4974516;28;20441;-74
2022/07/30 11:06:45;;;;;;;5.10;1.80;;;;;;;;;;4974922;28;20927;-74
2022/07/30 11:09:30;;;;;;;4.73;1.80;;;;;;;;;;4974947;28;20981;-74
2022/07/30 11:11:56;;;;;;;1.50;1.30;;;;;;;;;;4973966;28;20429;-74
2022/07/30 11:14:21;;;;;;;1.70;1.60;;;;;;;;;;4987944;28;20430;-73
2022/07/30 11:16:58;;;;;;;1.20;1.10;;;;;;;;;;4974823;28;20462;-74
2022/07/30 11:19:25;;;;;;;4.83;1.20;;;;;;;;;;4989803;28;20426;-74
2022/07/30 11:22:20;;;;;;;2.00;1.30;;;;;;;;;;4973821;28;20429;-74
2022/07/30 11:24:47;;;;;;;1.00;1.00;;;;;;;;;;4970098;28;20445;-74
2022/07/30 11:27:49;;;;;;;1.17;1.17;;;;;;;;;;4974469;28;20414;-74
2022/07/30 11:30:15;;;;;;;2.33;1.47;;;;;;;;;;4953071;28;20509;-74
2022/07/30 11:32:44;;;;;;;1.93;1.57;;;;;;;;;;4966652;28;20926;-74
2022/07/30 11:35:11;;;;;;;5.03;1.90;;;;;;;;;;4972510;28;20264;-74
2022/07/30 11:37:55;;;;;;;2.30;1.90;;;;;;;;;;4974013;28;20441;-74
2022/07/30 11:40:23;;;;;;;1.70;1.70;;;;;;;;;;4972611;28;20434;-74
2022/07/30 11:42:50;;;;;;;3.70;2.50;;;;;;;;;;4968050;28;20437;-74
2022/07/30 11:45:16;;;;;;;9.27;1.73;;;;;;;;;;4988816;28;20884;-78
2022/07/30 11:48:00;;;;;;;1.13;1.13;;;;;;;;;;4974389;28;20422;-80
2022/07/30 11:50:28;;;;;;;3.07;1.27;;;;;;;;;;4973948;28;20445;-80
2022/07/30 11:52:55;;;;;;;5.13;1.67;;;;;;;;;;4973482;28;20918;-76
2022/07/30 11:55:23;;;;;;;1.43;1.37;;;;;;;;;;4973049;28;20978;-79
2022/07/30 11:57:49;;;;;;;1.97;1.87;;;;;;;;;;4977482;28;20801;-78
2022/07/30 12:00:17;;;;;;;3.83;1.50;;;;;;;;;;4954697;28;20526;-78
2022/07/30 12:02:43;;;;;;;5.40;1.80;;;;;;;;;;4954422;28;20191;-79
2022/07/30 12:05:09;;;;;;;2.27;1.63;;;;;;;;;;4954826;28;20427;-79
2022/07/30 12:07:35;;;;;;;1.53;1.50;;;;;;;;;;4985486;28;20423;-79
2022/07/30 12:10:15;;;;;;;3.80;1.70;;;;;;;;;;4954744;28;20434;-78
2022/07/30 12:12:41;;;;;;;2.43;1.50;;;;;;;;;;4954460;29;20430;-79
2022/07/30 12:15:07;;;;;;;3.30;1.70;;;;;;;;;;4954737;28;20478;-79
2022/07/30 12:17:45;;;;;;;8.10;1.47;;;;;;;;;;4954922;28;20439;-78
2022/07/30 12:20:15;;;;;;;2.13;1.93;;;;;;;;;;4954571;28;20497;-79
2022/07/30 12:22:42;;;;;;;2.50;1.30;;;;;;;;;;4954412;28;20438;-79
2022/07/30 12:25:08;;;;;;;1.63;1.53;;;;;;;;;;4954638;28;20415;-79
2022/07/30 12:27:34;;;;;;;1.57;1.47;;;;;;;;;;4985368;28;20419;-78
2022/07/30 12:30:00;;;;;;;1.90;1.80;;;;;;;;;;4954642;28;20411;-79
2022/07/30 12:32:26;;;;;;;2.57;1.77;;;;;;;;;;4954108;28;20435;-79
2022/07/30 12:34:54;;;;;;;1.23;1.23;;;;;;;;;;4954501;28;20474;-79
2022/07/30 12:37:20;;;;;;;1.43;1.33;;;;;;;;;;4954594;28;20434;-79
2022/07/30 12:39:48;;;;;;;4.43;1.60;;;;;;;;;;4954630;28;20439;-79
2022/07/30 12:42:17;;;;;;;1.17;1.17;;;;;;;;;;4984749;28;20497;-78
2022/07/30 12:44:43;;;;;;;1.37;1.30;;;;;;;;;;4954307;28;20436;-78
2022/07/30 12:47:20;;;;;;;1.60;1.60;;;;;;;;;;4954525;28;20478;-78
2022/07/30 12:49:47;;;;;;;3.10;1.30;;;;;;;;;;4985693;28;20477;-78
2022/07/30 12:52:26;;;;;;;1.40;1.40;;;;;;;;;;4954065;28;20834;-78
2022/07/30 12:54:56;;;;;;;5.27;1.60;;;;;;;;;;4954022;28;20482;-79
2022/07/30 12:57:22;;;;;;;1.20;1.20;;;;;;;;;;4985167;28;20820;-78
2022/07/30 13:00:00;;;;;;;2.13;1.20;;;;;;;;;;4954301;28;20866;-79
2022/07/30 13:02:33;;;;;;;1.60;1.50;;;;;;;;;;4953954;28;20862;-78
2022/07/30 13:04:59;;;;;;;2.10;1.50;;;;;;;;;;4954213;28;20454;-78
2022/07/30 13:07:28;;;;;;;2.00;1.90;;;;;;;;;;4954302;28;20455;-79
2022/07/30 13:10:08;;;;;;;1.77;1.03;;;;;;;;;;4954160;28;20187;-80
2022/07/30 13:12:34;;;;;;;2.40;1.00;;;;;;;;;;4984922;28;20432;-78
2022/07/30 13:15:00;;;;;;;1.30;1.30;;;;;;;;;;4953981;29;20482;-77
2022/07/30 13:17:25;;;;;;;1.30;1.17;;;;;;;;;;4954154;28;20438;-79
2022/07/30 13:19:51;;;;;;;2.83;1.10;;;;;;;;;;4956540;28;20414;-79
2022/07/30 13:22:17;;;;;;;2.10;1.47;;;;;;;;;;4957357;28;20222;-79
2022/07/30 13:24:43;;;;;;;2.33;2.33;;;;;;;;;;4957711;28;20839;-79
2022/07/30 13:27:09;;;;;;;1.07;1.07;;;;;;;;;;4957121;29;20439;-79
2022/07/30 13:29:35;;;;;;;1.20;1.20;;;;;;;;;;4957392;28;20190;-79
2022/07/30 13:32:01;;;;;;;1.23;1.23;;;;;;;;;;4957091;28;20431;-80
2022/07/30 13:34:27;;;;;;;2.30;1.40;;;;;;;;;;4957400;28;20452;-79
2022/07/30 13:36:53;;;;;;;1.30;1.30;;;;;;;;;;4957400;28;20191;-79
2022/07/30 13:39:19;;;;;;;1.23;1.13;;;;;;;;;;4988445;28;20184;-79
2022/07/30 13:41:45;;;;;;;1.80;1.63;;;;;;;;;;4956664;29;20427;-77
2022/07/30 13:44:11;;;;;;;3.90;1.10;;;;;;;;;;4957199;28;20505;-79
2022/07/30 13:46:37;;;;;;;3.10;1.20;;;;;;;;;;4957251;28;20935;-79
2022/07/30 13:49:03;;;;;;;1.23;1.23;;;;;;;;;;4956984;28;20871;-80
2022/07/30 13:51:30;;;;;;;2.47;1.20;;;;;;;;;;4957167;28;20419;-78
2022/07/30 13:53:56;;;;;;;4.40;2.13;;;;;;;;;;4956537;28;21032;-79
2022/07/30 13:56:22;;;;;;;4.73;1.50;;;;;;;;;;4956784;28;20485;-79
2022/07/30 13:58:47;;;;;;;1.50;1.50;;;;;;;;;;4956976;28;20771;-78
2022/07/30 14:01:14;;;;;;;3.80;1.47;;;;;;;;;;4956698;28;20934;-80
2022/07/30 14:03:40;;;;;;;1.10;1.10;;;;;;;;;;4956580;28;20446;-79
2022/07/30 14:06:06;;;;;;;7.67;1.40;;;;;;;;;;4956784;29;20840;-79
2022/07/30 14:08:32;;;;;;;1.67;1.57;;;;;;;;;;4956905;28;20517;-79
2022/07/30 14:10:58;;;;;;;3.03;1.43;;;;;;;;;;4956385;28;20423;-78
2022/07/30 14:13:24;;;;;;;3.80;1.63;;;;;;;;;;4956344;28;20407;-79
2022/07/30 14:15:50;;;;;;;1.47;1.47;;;;;;;;;;4987598;28;20471;-79
2022/07/30 14:18:16;;;;;;;2.00;1.33;;;;;;;;;;4956554;28;20434;-79
2022/07/30 14:20:42;;;;;;;1.60;1.50;;;;;;;;;;4956727;28;20187;-80
2022/07/30 14:23:08;;;;;;;3.73;3.50;;;;;;;;;;4956069;28;20782;-79
2022/07/30 14:25:34;;;;;;;3.50;3.40;;;;;;;;;;4956195;28;20437;-79
2022/07/30 14:28:00;;;;;;;2.97;2.77;;;;;;;;;;4956539;28;20407;-79
2022/07/30 14:30:26;;;;;;;3.33;3.13;;;;;;;;;;4986764;28;20442;-76
2022/07/30 14:32:52;;;;;;;4.23;3.93;;;;;;;;;;4955960;28;20991;-78
2022/07/30 14:35:18;;;;;;;1.60;1.60;;;;;;;;;;4987147;28;20477;-79
2022/07/30 14:37:44;;;;;;;3.90;2.43;;;;;;;;;;4956430;28;20193;-78
2022/07/30 14:40:11;;;;;;;2.67;2.23;;;;;;;;;;4956069;28;20183;-79
2022/07/30 14:42:38;;;;;;;1.87;1.87;;;;;;;;;;4955723;28;20626;-78
2022/07/30 14:45:05;;;;;;;1.43;1.33;;;;;;;;;;4956024;28;20423;-78
2022/07/30 14:47:31;;;;;;;1.63;1.40;;;;;;;;;;4956005;28;20423;-78